createdAt,value
2023-03-04T00:01:37.413Z,27.42
2023-03-04T00:06:59.170Z,27.55
2023-03-04T00:12:20.961Z,27.76
2023-03-04T00:17:42.757Z,27.48
2023-03-04T00:23:04.457Z,27.96
2023-03-04T00:28:26.157Z,27.65
2023-03-04T00:33:48.021Z,27.61
2023-03-04T00:39:09.767Z,27.98
2023-03-04T00:44:31.710Z,27.60
2023-03-04T00:49:53.511Z,27.93
2023-03-04T00:55:15.335Z,27.75
2023-03-04T01:00:37.121Z,28.09
2023-03-04T01:05:59.700Z,27.93
2023-03-04T01:11:21.807Z,28.18
2023-03-04T01:16:43.641Z,27.97
2023-03-04T01:22:05.509Z,27.71
2023-03-04T01:27:27.307Z,28.21
2023-03-04T01:32:49.095Z,27.79
2023-03-04T01:38:10.892Z,27.87
2023-03-04T01:43:33.021Z,28.22
2023-03-04T01:48:55.126Z,28.19
2023-03-04T01:54:17.300Z,27.83
2023-03-04T01:59:38.996Z,28.15
2023-03-04T02:05:00.805Z,28.09
2023-03-04T02:10:23.242Z,28.23
2023-03-04T02:15:48.121Z,28.34
2023-03-04T02:21:19.329Z,28.12
2023-03-04T02:26:43.736Z,27.96
2023-03-04T02:32:05.558Z,28.42
2023-03-04T02:37:27.342Z,27.92
2023-03-04T02:42:49.075Z,28.14
2023-03-04T02:48:12.170Z,28.02
2023-03-04T02:53:34.257Z,28.08
2023-03-04T02:58:55.999Z,28.08
2023-03-04T03:04:19.193Z,27.83
2023-03-04T03:09:40.922Z,28.04
2023-03-04T03:15:02.689Z,28.14
2023-03-04T03:20:24.450Z,28.14
2023-03-04T03:25:46.189Z,28.23
2023-03-04T03:31:08.231Z,28.19
2023-03-04T03:36:30.152Z,28.24
2023-03-04T03:41:51.941Z,28.08
2023-03-04T03:47:13.727Z,27.83
2023-03-04T03:52:35.564Z,28.04
2023-03-04T03:57:57.606Z,27.89
2023-03-04T04:03:19.532Z,27.77
2023-03-04T04:08:41.378Z,28.06
2023-03-04T04:14:03.222Z,28.08
2023-03-04T04:19:25.066Z,27.77
2023-03-04T04:24:47.605Z,27.79
2023-03-04T04:30:10.124Z,27.77
2023-03-04T04:35:33.380Z,27.84
2023-03-04T04:40:57.766Z,27.76
2023-03-04T04:46:19.726Z,28.04
2023-03-04T04:51:41.649Z,27.94
2023-03-04T04:57:03.592Z,28.13
2023-03-04T05:02:25.369Z,28.09
2023-03-04T05:07:47.163Z,28.03
2023-03-04T05:13:08.944Z,28.04
2023-03-04T05:18:31.249Z,27.57
2023-03-04T05:23:53.102Z,28.15
2023-03-04T05:29:14.854Z,27.86
2023-03-04T05:34:36.499Z,27.79
2023-03-04T05:39:58.221Z,28.08
2023-03-04T05:45:20.077Z,27.81
2023-03-04T05:50:41.835Z,27.73
2023-03-04T05:56:11.340Z,27.81
2023-03-04T06:01:33.122Z,27.82
2023-03-04T06:06:54.860Z,27.85
2023-03-04T06:12:16.798Z,27.77
2023-03-04T06:17:42.112Z,28.28
2023-03-04T06:23:04.752Z,27.80
2023-03-04T06:28:26.797Z,28.08
2023-03-04T06:33:48.884Z,28.27
2023-03-04T06:39:10.872Z,28.07
2023-03-04T06:44:32.801Z,27.97
2023-03-04T06:49:54.616Z,28.04
2023-03-04T06:55:16.471Z,28.57
2023-03-04T07:00:38.263Z,28.44
2023-03-04T07:05:59.995Z,28.30
2023-03-04T07:11:22.545Z,27.99
2023-03-04T07:16:44.309Z,27.30
2023-03-04T07:22:06.358Z,27.04
2023-03-04T07:27:28.118Z,27.15
2023-03-04T07:32:49.925Z,27.04
2023-03-04T07:38:11.837Z,26.92
2023-03-04T07:43:33.536Z,26.93
2023-03-04T07:48:56.701Z,27.35
2023-03-04T07:54:20.306Z,27.62
2023-03-04T07:59:42.041Z,27.73
2023-03-04T08:05:04.033Z,27.38
2023-03-04T08:10:25.753Z,27.51
2023-03-04T08:15:47.478Z,27.80
2023-03-04T08:21:11.487Z,27.78
2023-03-04T08:26:40.682Z,27.74
2023-03-04T08:32:02.750Z,27.84
2023-03-04T08:37:24.537Z,27.47
2023-03-04T08:42:46.252Z,27.06
2023-03-04T08:48:07.931Z,26.67
2023-03-04T08:53:29.656Z,26.35
2023-03-04T08:58:51.349Z,26.03
2023-03-04T09:04:13.225Z,26.25
2023-03-04T09:09:35.226Z,25.67
2023-03-04T09:15:10.154Z,25.92
2023-03-04T09:20:32.848Z,25.93
2023-03-04T09:25:54.754Z,26.08
2023-03-04T09:31:16.597Z,26.03
2023-03-04T09:36:38.448Z,25.75
2023-03-04T09:42:02.213Z,26.26
2023-03-04T09:47:26.618Z,26.15
2023-03-04T09:53:14.899Z,26.25
2023-03-04T09:59:03.991Z,26.61
2023-03-04T10:04:40.867Z,26.67
2023-03-04T10:10:10.579Z,26.50
2023-03-04T10:15:48.971Z,26.58
2023-03-04T10:21:21.344Z,26.47
2023-03-04T10:26:46.166Z,26.91
2023-03-04T10:32:13.704Z,26.98
2023-03-04T10:37:51.020Z,26.53
2023-03-04T10:43:15.811Z,27.01
2023-03-04T10:48:41.116Z,26.86
2023-03-04T10:54:31.627Z,26.90
2023-03-04T10:59:58.817Z,26.73
2023-03-04T11:05:26.673Z,27.02
2023-03-04T11:10:52.267Z,26.75
2023-03-04T11:16:27.692Z,27.30
2023-03-04T11:21:51.237Z,27.33
2023-03-04T11:27:27.445Z,27.33
2023-03-04T11:32:51.745Z,27.41
2023-03-04T11:38:21.125Z,27.49
2023-03-04T11:43:45.483Z,27.17
2023-03-04T11:49:09.907Z,27.32
2023-03-04T11:54:58.708Z,27.18
2023-03-04T12:00:57.371Z,26.89
2023-03-04T12:06:36.944Z,26.65
2023-03-04T12:12:35.799Z,26.35
2023-03-04T12:18:26.694Z,26.23
2023-03-04T12:23:48.395Z,26.47
2023-03-04T12:29:12.834Z,26.50
2023-03-04T12:34:55.684Z,26.55
2023-03-04T12:40:54.131Z,26.49
2023-03-04T12:46:21.868Z,26.70
2023-03-04T12:51:53.950Z,26.98
2023-03-04T12:57:21.375Z,26.58
2023-03-04T13:02:54.122Z,26.93
2023-03-04T13:08:37.427Z,27.20
2023-03-04T13:14:09.713Z,26.99
2023-03-04T13:19:51.039Z,27.25
2023-03-04T13:25:50.329Z,27.15
2023-03-04T13:31:18.574Z,27.32
2023-03-04T13:36:55.331Z,27.10
2023-03-04T13:42:40.595Z,27.10
2023-03-04T13:48:05.218Z,27.59
2023-03-04T13:54:00.557Z,27.56
2023-03-04T13:59:44.544Z,27.88
2023-03-04T14:05:07.180Z,27.59
2023-03-04T14:10:29.412Z,27.33
2023-03-04T14:15:56.609Z,27.11
2023-03-04T14:21:18.644Z,27.42
2023-03-04T14:26:40.816Z,27.15
2023-03-04T14:32:05.424Z,27.26
2023-03-04T14:37:34.329Z,27.04
2023-03-04T14:43:01.699Z,27.04
2023-03-04T14:48:30.480Z,27.19
2023-03-04T14:53:56.485Z,27.52
2023-03-04T14:59:18.174Z,27.30
2023-03-04T15:04:41.256Z,27.88
2023-03-04T15:10:07.245Z,27.81
2023-03-04T15:15:40.853Z,27.85
2023-03-04T15:21:26.888Z,28.66
2023-03-04T15:26:50.592Z,28.60
2023-03-04T15:32:12.387Z,28.48
2023-03-04T15:37:34.383Z,28.10
2023-03-04T15:42:58.125Z,28.58
2023-03-04T15:48:20.763Z,27.60
2023-03-04T15:53:46.375Z,27.50
2023-03-04T15:59:13.447Z,27.75
2023-03-04T16:04:35.298Z,27.71
2023-03-04T16:10:02.484Z,27.85
2023-03-04T16:15:27.392Z,28.20
2023-03-04T16:20:50.507Z,28.36
2023-03-04T16:26:21.144Z,28.21
2023-03-04T16:31:42.946Z,28.33
2023-03-04T16:37:12.456Z,28.27
2023-03-04T16:42:34.337Z,28.38
2023-03-04T16:47:56.579Z,27.80
2023-03-04T16:53:31.646Z,27.42
2023-03-04T16:58:57.051Z,27.19
2023-03-04T17:04:18.765Z,26.37
2023-03-04T17:09:42.090Z,26.80
2023-03-04T17:15:04.497Z,26.24
2023-03-04T17:20:26.367Z,26.05
2023-03-04T17:25:56.167Z,25.78
2023-03-04T17:31:19.625Z,26.07
2023-03-04T17:36:41.492Z,26.31
2023-03-04T17:42:05.233Z,26.52
2023-03-04T17:47:27.115Z,26.76
2023-03-04T17:52:48.901Z,27.18
2023-03-04T17:58:11.464Z,27.34
2023-03-04T18:03:33.743Z,27.16
2023-03-04T18:08:55.805Z,27.53
2023-03-04T18:14:17.996Z,27.91
2023-03-04T18:19:40.154Z,27.68
2023-03-04T18:25:01.990Z,27.84
2023-03-04T18:30:27.422Z,28.09
2023-03-04T18:35:49.402Z,27.91
2023-03-04T18:41:13.780Z,27.88
2023-03-04T18:46:48.150Z,28.01
2023-03-04T18:52:09.966Z,28.19
2023-03-04T18:57:31.927Z,28.11
2023-03-04T19:03:06.496Z,28.40
2023-03-04T19:08:29.074Z,28.03
2023-03-04T19:13:52.035Z,27.75
2023-03-04T19:19:15.297Z,27.31
2023-03-04T19:24:37.038Z,27.08
2023-03-04T19:29:58.801Z,27.38
2023-03-04T19:35:20.769Z,27.20
2023-03-04T19:40:43.621Z,27.30
2023-03-04T19:46:09.592Z,27.08
2023-03-04T19:51:32.977Z,27.61
2023-03-04T19:56:55.225Z,27.73
2023-03-04T20:02:17.248Z,27.83
2023-03-04T20:07:40.208Z,27.41
2023-03-04T20:13:02.010Z,27.69
2023-03-04T20:18:23.882Z,28.05
2023-03-04T20:23:45.598Z,27.86
2023-03-04T20:29:07.319Z,28.08
2023-03-04T20:34:29.052Z,27.76
2023-03-04T20:39:51.513Z,27.41
2023-03-04T20:45:13.225Z,27.70
2023-03-04T20:50:34.974Z,27.39
2023-03-04T20:56:03.750Z,27.25
2023-03-04T21:01:26.299Z,27.22
2023-03-04T21:06:48.665Z,27.07
2023-03-04T21:12:10.659Z,27.13
2023-03-04T21:17:32.394Z,26.96
2023-03-04T21:22:54.051Z,27.21
2023-03-04T21:28:16.195Z,27.09
2023-03-04T21:33:37.897Z,26.88
2023-03-04T21:38:59.624Z,27.29
2023-03-04T21:44:28.488Z,27.27
2023-03-04T21:49:55.174Z,27.64
2023-03-04T21:55:17.125Z,27.68
2023-03-04T22:00:39.291Z,27.83
2023-03-04T22:06:05.517Z,27.60
2023-03-04T22:11:31.083Z,27.71
2023-03-04T22:16:55.624Z,28.22
2023-03-04T22:22:19.134Z,28.00
2023-03-04T22:27:40.883Z,28.11
2023-03-04T22:33:03.215Z,28.11
2023-03-04T22:38:25.082Z,27.96
2023-03-04T22:43:47.847Z,28.49
2023-03-04T22:49:12.666Z,28.32
2023-03-04T22:54:34.489Z,28.40
2023-03-04T22:59:56.321Z,28.41
2023-03-04T23:05:21.071Z,28.26
2023-03-04T23:10:42.881Z,28.55
2023-03-04T23:16:08.233Z,28.49
2023-03-04T23:21:34.131Z,28.38
2023-03-04T23:26:56.024Z,28.38
2023-03-04T23:32:17.703Z,28.76
2023-03-04T23:37:39.543Z,28.45
2023-03-04T23:43:01.671Z,28.56
2023-03-04T23:48:23.389Z,28.62
2023-03-04T23:53:45.943Z,28.52
2023-03-04T23:59:08.105Z,29.01
